createdAt,value
2018-11-21T00:00:26.649Z,27.87
2018-11-21T00:03:07.034Z,26.50
2018-11-21T00:05:46.708Z,25.63
2018-11-21T00:08:27.093Z,26.23
2018-11-21T00:11:07.993Z,27.63
2018-11-21T00:13:48.097Z,26.50
2018-11-21T00:16:27.865Z,26.03
2018-11-21T00:19:08.419Z,26.80
2018-11-21T00:21:48.879Z,26.27
2018-11-21T00:24:29.144Z,25.17
2018-11-21T00:27:08.757Z,27.50
2018-11-21T00:29:48.373Z,25.23
2018-11-21T00:32:29.076Z,26.80
2018-11-21T00:35:09.953Z,25.03
2018-11-21T00:37:50.335Z,28.20
2018-11-21T00:40:30.225Z,26.23
2018-11-21T00:43:10.275Z,27.60
2018-11-21T00:45:50.835Z,25.00
2018-11-21T00:48:31.267Z,26.30
2018-11-21T00:51:12.279Z,26.70
2018-11-21T00:53:52.467Z,26.70
2018-11-21T00:56:31.989Z,23.93
2018-11-21T00:59:11.996Z,25.60
2018-11-21T01:01:51.578Z,24.23
2018-11-21T01:04:31.875Z,26.47
2018-11-21T01:07:12.207Z,25.30
2018-11-21T01:09:51.715Z,25.50
2018-11-21T01:12:31.777Z,27.17
2018-11-21T01:15:11.991Z,25.83
2018-11-21T01:17:51.809Z,26.87
2018-11-21T01:20:32.345Z,28.37
2018-11-21T01:23:12.081Z,28.07
2018-11-21T01:25:52.249Z,25.97
2018-11-21T01:28:33.485Z,28.90
2018-11-21T01:31:13.841Z,27.23
2018-11-21T01:33:53.319Z,27.63
2018-11-21T01:36:33.137Z,25.07
2018-11-21T01:39:13.507Z,26.70
2018-11-21T01:41:53.795Z,25.97
2018-11-21T01:44:33.229Z,25.10
2018-11-21T01:47:12.979Z,25.00
2018-11-21T01:49:52.861Z,25.03
2018-11-21T01:52:32.449Z,28.30
2018-11-21T01:55:12.173Z,27.67
2018-11-21T01:57:52.369Z,25.10
2018-11-21T02:00:32.331Z,26.33
2018-11-21T02:03:11.967Z,26.20
2018-11-21T02:05:54.463Z,25.97
2018-11-21T02:08:34.239Z,25.40
2018-11-21T02:11:13.819Z,28.50
2018-11-21T02:13:53.361Z,26.80
2018-11-21T02:16:33.067Z,26.60
2018-11-21T02:19:12.865Z,26.37
2018-11-21T02:21:52.509Z,23.70
2018-11-21T02:24:31.929Z,27.60
2018-11-21T02:27:11.754Z,25.53
2018-11-21T02:29:51.537Z,27.37
2018-11-21T02:32:31.790Z,25.43
2018-11-21T02:35:11.163Z,26.50
2018-11-21T02:37:50.774Z,28.53
2018-11-21T02:40:30.413Z,26.63
2018-11-21T02:43:11.723Z,27.23
2018-11-21T02:45:51.456Z,27.13
2018-11-21T02:48:31.256Z,26.10
2018-11-21T02:51:10.727Z,26.23
2018-11-21T02:53:50.472Z,27.40
2018-11-21T02:56:30.033Z,27.20
2018-11-21T02:59:10.271Z,27.17
2018-11-21T03:01:50.620Z,26.83
2018-11-21T03:04:30.081Z,26.10
2018-11-21T03:07:09.865Z,28.67
2018-11-21T03:09:49.549Z,29.23
2018-11-21T03:12:30.660Z,27.80
2018-11-21T03:15:10.144Z,25.33
2018-11-21T03:17:49.751Z,26.07
2018-11-21T03:20:30.131Z,28.00
2018-11-21T03:23:09.961Z,25.93
2018-11-21T03:25:50.203Z,28.87
2018-11-21T03:28:30.356Z,25.70
2018-11-21T03:31:10.505Z,27.10
2018-11-21T03:33:57.670Z,26.90
2018-11-21T03:42:41.666Z,25.30
2018-11-21T03:45:21.379Z,25.80
2018-11-21T03:48:01.137Z,26.40
2018-11-21T03:50:40.791Z,24.83
2018-11-21T03:53:20.893Z,27.33
2018-11-21T03:56:01.163Z,27.13
2018-11-21T03:58:40.786Z,27.03
2018-11-21T04:01:21.143Z,25.13
2018-11-21T04:04:00.641Z,26.43
2018-11-21T04:06:40.067Z,25.47
2018-11-21T04:09:22.397Z,27.77
2018-11-21T04:12:01.935Z,29.07
2018-11-21T04:14:41.729Z,28.60
2018-11-21T04:17:21.672Z,29.23
2018-11-21T04:20:00.718Z,28.67
2018-11-21T04:22:40.378Z,27.13
2018-11-21T04:25:20.907Z,27.80
2018-11-21T04:28:01.055Z,24.83
2018-11-21T04:30:40.727Z,26.43
2018-11-21T04:33:20.435Z,24.70
2018-11-21T04:36:00.049Z,26.80
2018-11-21T04:38:40.213Z,27.13
2018-11-21T04:41:19.978Z,28.80
2018-11-21T04:43:59.453Z,30.07
2018-11-21T04:46:39.277Z,27.73
2018-11-21T04:49:18.883Z,32.23
2018-11-21T04:51:58.620Z,26.90
2018-11-21T04:54:38.367Z,26.90
2018-11-21T04:57:18.943Z,27.03
2018-11-21T04:59:58.626Z,28.50
2018-11-21T05:02:41.973Z,27.33
2018-11-21T05:05:21.868Z,28.23
2018-11-21T05:08:01.683Z,27.63
2018-11-21T05:10:41.505Z,31.50
2018-11-21T05:13:21.333Z,28.00
2018-11-21T05:16:02.546Z,31.37
2018-11-21T05:18:42.740Z,28.60
2018-11-21T05:21:22.506Z,28.90
2018-11-21T05:24:02.024Z,28.30
2018-11-21T05:26:42.236Z,30.10
2018-11-21T05:29:22.075Z,32.87
2018-11-21T05:32:01.900Z,28.87
2018-11-21T05:34:42.363Z,29.03
2018-11-21T05:37:22.170Z,31.23
2018-11-21T05:40:02.634Z,26.70
2018-11-21T05:42:42.168Z,31.23
2018-11-21T05:45:21.689Z,24.73
2018-11-21T05:48:01.219Z,27.70
2018-11-21T05:50:42.563Z,29.60
2018-11-21T05:53:22.231Z,27.20
2018-11-21T05:56:01.859Z,28.33
2018-11-21T05:58:41.433Z,32.07
2018-11-21T06:01:21.347Z,31.77
2018-11-21T06:04:01.897Z,29.67
2018-11-21T06:06:41.645Z,27.03
2018-11-21T06:09:21.352Z,28.13
2018-11-21T06:12:04.352Z,30.30
2018-11-21T06:14:40.882Z,27.63
2018-11-21T06:17:08.292Z,26.17
2018-11-21T06:19:55.038Z,24.37
2018-11-21T06:22:34.654Z,27.57
2018-11-21T06:25:14.885Z,31.97
2018-11-21T06:27:54.573Z,27.87
2018-11-21T06:30:34.100Z,30.37
2018-11-21T06:33:13.583Z,28.37
2018-11-21T06:35:41.359Z,28.90
2018-11-21T06:38:28.163Z,30.03
2018-11-21T06:41:14.971Z,29.23
2018-11-21T06:43:54.631Z,32.47
2018-11-21T06:46:37.029Z,33.73
2018-11-21T06:49:17.275Z,30.13
2018-11-21T06:51:57.628Z,32.63
2018-11-21T06:54:38.105Z,28.67
2018-11-21T06:57:18.937Z,31.83
2018-11-21T06:59:58.679Z,30.10
2018-11-21T07:02:38.941Z,33.60
2018-11-21T07:05:19.007Z,26.87
2018-11-21T07:08:00.470Z,33.03
2018-11-21T07:10:40.277Z,27.73
2018-11-21T07:13:19.893Z,29.30
2018-11-21T07:15:59.521Z,31.10
2018-11-21T07:18:39.491Z,32.30
2018-11-21T07:21:19.054Z,33.57
2018-11-21T07:23:58.751Z,34.77
2018-11-21T07:26:38.434Z,30.43
2018-11-21T07:29:18.728Z,33.50
2018-11-21T07:31:58.363Z,32.43
2018-11-21T07:34:37.808Z,33.53
2018-11-21T07:37:18.562Z,34.07
2018-11-21T07:39:58.991Z,39.80
2018-11-21T07:42:38.482Z,34.27
2018-11-21T07:45:17.937Z,33.63
2018-11-21T07:47:58.179Z,32.23
2018-11-21T07:50:37.897Z,36.50
2018-11-21T07:53:18.351Z,42.67
2018-11-21T07:55:58.089Z,34.70
2018-11-21T07:58:38.135Z,33.27
2018-11-21T08:01:37.897Z,34.17
2018-11-21T08:04:37.849Z,32.73
2018-11-21T08:07:37.650Z,33.73
2018-11-21T08:10:29.812Z,31.53
2018-11-21T08:13:25.926Z,30.43
2018-11-21T08:16:24.941Z,33.10
2018-11-21T08:19:30.501Z,32.93
2018-11-21T08:22:30.186Z,28.27
2018-11-21T08:31:32.690Z,27.90
2018-11-21T08:34:19.472Z,29.43
2018-11-21T08:37:00.115Z,35.43
2018-11-21T08:39:40.215Z,31.33
2018-11-21T08:42:21.879Z,30.63
2018-11-21T08:45:02.016Z,32.37
2018-11-21T08:47:42.429Z,29.57
2018-11-21T08:50:22.995Z,29.23
2018-11-21T08:53:03.165Z,29.57
2018-11-21T08:55:43.459Z,34.53
2018-11-21T08:58:23.669Z,34.47
2018-11-21T09:01:04.109Z,30.97
2018-11-21T09:03:44.512Z,32.97
2018-11-21T09:06:24.266Z,31.20
2018-11-21T09:09:04.801Z,31.70
2018-11-21T09:11:45.170Z,29.53
2018-11-21T09:14:24.862Z,30.57
2018-11-21T09:17:04.542Z,31.33
2018-11-21T09:19:44.268Z,31.60
2018-11-21T09:22:24.155Z,30.97
2018-11-21T09:24:51.515Z,33.13
2018-11-21T09:27:39.189Z,32.83
2018-11-21T09:30:27.225Z,31.93
2018-11-21T09:33:08.671Z,32.23
2018-11-21T09:35:48.885Z,32.80
2018-11-21T09:38:29.838Z,35.53
2018-11-21T09:41:09.710Z,34.53
2018-11-21T09:43:37.780Z,33.90
2018-11-21T09:46:24.600Z,33.00
2018-11-21T09:49:04.745Z,32.43
2018-11-21T09:51:45.091Z,37.33
2018-11-21T09:54:24.626Z,40.57
2018-11-21T09:57:04.178Z,45.13
2018-11-21T09:59:53.330Z,43.50
2018-11-21T10:02:33.344Z,39.60
2018-11-21T10:05:13.212Z,37.47
2018-11-21T10:07:53.486Z,41.30
2018-11-21T10:10:34.005Z,36.90
2018-11-21T10:13:13.511Z,37.67
2018-11-21T10:15:53.177Z,34.10
2018-11-21T10:18:33.357Z,33.10
2018-11-21T10:21:23.988Z,33.10
2018-11-21T10:24:04.206Z,33.23
2018-11-21T10:26:44.340Z,33.20
2018-11-21T10:29:24.142Z,34.33
2018-11-21T10:32:03.970Z,30.17
2018-11-21T10:34:31.274Z,32.80
2018-11-21T10:37:18.102Z,32.17
2018-11-21T10:40:05.521Z,33.93
2018-11-21T10:42:32.824Z,37.93
2018-11-21T10:45:19.652Z,32.90
2018-11-21T10:48:06.858Z,34.37
2018-11-21T10:50:34.548Z,30.10
2018-11-21T10:53:21.587Z,32.63
2018-11-21T10:56:02.037Z,30.50
2018-11-21T10:58:43.263Z,31.07
2018-11-21T11:01:26.491Z,27.60
2018-11-21T11:04:10.922Z,31.57
2018-11-21T11:07:10.992Z,30.73
2018-11-21T11:10:14.401Z,30.30
2018-11-21T11:12:54.816Z,31.10
2018-11-21T11:15:55.059Z,30.03
2018-11-21T11:18:54.224Z,31.10
2018-11-21T11:21:57.790Z,28.13
2018-11-21T11:24:38.608Z,29.20
2018-11-21T11:30:11.256Z,30.47
2018-11-21T11:33:18.560Z,33.10
2018-11-21T11:36:18.414Z,31.13
2018-11-21T11:38:56.760Z,30.50
2018-11-21T11:42:03.087Z,31.13
2018-11-21T11:45:20.908Z,29.30
2018-11-21T11:48:19.960Z,30.83
2018-11-21T11:51:19.490Z,33.03
2018-11-21T11:54:09.663Z,32.13
2018-11-21T11:57:01.512Z,30.07
2018-11-21T12:00:00.950Z,31.07
2018-11-21T12:03:00.751Z,29.77
2018-11-21T12:06:00.262Z,31.53
2018-11-21T12:08:43.738Z,28.67
2018-11-21T12:11:43.145Z,30.70
2018-11-21T12:14:26.964Z,34.13
2018-11-21T12:17:26.549Z,28.40
2018-11-21T12:20:10.086Z,29.07
2018-11-21T12:25:40.062Z,28.83
2018-11-21T12:28:40.046Z,27.30
2018-11-21T12:31:40.038Z,27.77
2018-11-21T12:37:09.879Z,28.10
2018-11-21T12:40:09.127Z,27.33
2018-11-21T12:45:38.979Z,30.27
2018-11-21T12:51:11.463Z,29.73
2018-11-21T12:56:43.992Z,26.23
2018-11-21T13:05:13.126Z,28.23
2018-11-21T13:11:08.726Z,30.97
2018-11-21T13:16:41.165Z,23.60
2018-11-21T13:28:01.425Z,24.23
2018-11-21T13:33:34.061Z,27.57
2018-11-21T13:39:03.682Z,29.93
2018-11-21T13:47:47.099Z,27.00
2018-11-21T13:53:17.228Z,28.10
2018-11-21T13:58:40.779Z,28.23
2018-11-21T14:04:13.863Z,28.30
2018-11-21T14:09:41.052Z,26.63
2018-11-21T14:23:25.759Z,31.83
2018-11-21T14:26:05.805Z,30.67
2018-11-21T14:28:46.902Z,32.73
2018-11-21T14:36:56.735Z,35.23
2018-11-21T14:39:36.633Z,34.87
2018-11-21T14:42:20.649Z,36.70
2018-11-21T14:47:33.985Z,36.43
2018-11-21T14:50:25.826Z,34.17
2018-11-21T14:53:06.825Z,39.07
2018-11-21T14:55:48.324Z,37.03
2018-11-21T14:58:30.036Z,36.53
2018-11-21T15:03:59.964Z,37.57
2018-11-21T15:09:27.979Z,38.57
2018-11-21T15:14:57.535Z,35.20
2018-11-21T15:17:37.389Z,35.73
2018-11-21T15:20:18.719Z,36.20
2018-11-21T15:25:47.604Z,33.57
2018-11-21T15:28:27.938Z,36.50
2018-11-21T15:31:08.099Z,36.93
2018-11-21T15:36:33.603Z,34.13
2018-11-21T15:39:13.756Z,38.17
2018-11-21T15:41:53.746Z,36.63
2018-11-21T15:44:33.877Z,34.60
2018-11-21T15:47:14.492Z,34.13
2018-11-21T15:49:54.601Z,33.47
2018-11-21T15:52:34.736Z,37.07
2018-11-21T15:57:44.577Z,34.73
2018-11-21T16:00:33.054Z,37.03
2018-11-21T16:03:13.111Z,36.87
2018-11-21T16:05:52.888Z,38.77
2018-11-21T16:08:32.971Z,38.20
2018-11-21T16:11:17.278Z,37.03
2018-11-21T16:13:57.559Z,36.93
2018-11-21T16:16:38.046Z,37.80
2018-11-21T16:19:17.815Z,36.40
2018-11-21T16:21:57.889Z,36.40
2018-11-21T16:24:37.807Z,36.00
2018-11-21T16:27:17.706Z,38.23
2018-11-21T16:29:57.330Z,38.57
2018-11-21T16:32:48.883Z,37.67
2018-11-21T16:38:21.729Z,38.00
2018-11-21T16:43:50.716Z,34.67
2018-11-21T16:46:30.429Z,39.00
2018-11-21T16:49:02.779Z,65.70
2018-11-21T16:51:49.566Z,41.43
2018-11-21T16:54:30.452Z,38.83
2018-11-21T17:02:45.942Z,39.77
2018-11-21T17:05:32.041Z,39.00
2018-11-21T17:08:18.647Z,33.90
2018-11-21T17:10:58.905Z,36.87
2018-11-21T17:19:20.925Z,36.20
2018-11-21T17:24:54.204Z,35.47
2018-11-21T17:30:24.137Z,34.37
2018-11-21T17:35:49.365Z,33.53
2018-11-21T17:44:05.398Z,32.87
2018-11-21T17:49:37.332Z,35.00
2018-11-21T17:52:18.746Z,33.33
2018-11-21T17:57:45.757Z,32.97
2018-11-21T18:06:49.480Z,37.37
2018-11-21T18:09:33.882Z,36.00
2018-11-21T18:12:17.327Z,33.57
2018-11-21T18:17:46.908Z,31.63
2018-11-21T18:26:01.885Z,33.23
2018-11-21T18:28:42.296Z,34.50
2018-11-21T18:42:53.991Z,36.07
2018-11-21T18:53:54.755Z,34.97
2018-11-21T18:56:28.960Z,33.03
2018-11-21T18:59:08.923Z,31.83
2018-11-21T19:04:35.198Z,33.03
2018-11-21T19:07:15.636Z,33.87
2018-11-21T19:18:13.732Z,31.67
2018-11-21T19:23:46.389Z,39.40
2018-11-21T19:26:26.989Z,37.60
2018-11-21T19:29:11.172Z,35.13
2018-11-21T19:31:50.716Z,37.37
2018-11-21T19:34:33.501Z,37.13
2018-11-21T19:37:13.840Z,35.63
2018-11-21T19:39:54.931Z,36.57
2018-11-21T19:42:36.465Z,37.03
2018-11-21T19:45:17.402Z,37.20
2018-11-21T19:50:44.525Z,38.23
2018-11-21T19:56:13.677Z,35.50
2018-11-21T20:01:40.180Z,37.00
2018-11-21T20:07:08.658Z,35.73
2018-11-21T20:09:48.902Z,35.97
2018-11-21T20:12:29.653Z,33.67
2018-11-21T20:17:58.788Z,37.57
2018-11-21T20:20:39.088Z,39.43
2018-11-21T20:23:19.424Z,35.37
2018-11-21T20:31:32.894Z,35.67
2018-11-21T20:34:13.117Z,34.73
2018-11-21T20:39:38.662Z,39.87
2018-11-21T20:42:18.356Z,39.43
2018-11-21T20:44:59.467Z,37.17
2018-11-21T20:50:29.800Z,35.17
2018-11-21T20:53:11.234Z,35.63
2018-11-21T20:55:50.869Z,35.97
2018-11-21T21:01:19.455Z,34.83
2018-11-21T21:06:45.776Z,36.10
2018-11-21T21:12:15.665Z,33.13
2018-11-21T21:14:55.804Z,34.90
2018-11-21T21:17:37.145Z,38.20
2018-11-21T21:20:18.606Z,34.63
2018-11-21T21:23:01.998Z,32.07
2018-11-21T21:25:41.562Z,35.47
2018-11-21T21:28:21.159Z,36.13
2018-11-21T21:33:48.058Z,35.00
2018-11-21T21:42:18.101Z,36.00
2018-11-21T21:50:33.495Z,33.60
2018-11-21T21:56:03.657Z,35.20
2018-11-21T22:04:22.870Z,31.90
2018-11-21T22:09:58.882Z,36.50
2018-11-21T22:12:38.843Z,34.47
2018-11-21T22:15:19.846Z,32.97
2018-11-21T22:18:04.668Z,37.10
2018-11-21T22:20:46.134Z,35.37
2018-11-21T22:26:15.293Z,34.33
2018-11-21T22:28:55.244Z,33.83
2018-11-21T22:34:24.543Z,32.23
2018-11-21T22:39:45.858Z,36.30
2018-11-21T22:42:26.181Z,33.70
2018-11-21T22:45:10.312Z,33.53
2018-11-21T22:47:50.467Z,32.30
2018-11-21T22:50:30.999Z,33.50
2018-11-21T22:53:10.696Z,32.50
2018-11-21T23:01:25.416Z,30.77
2018-11-21T23:03:52.819Z,33.27
2018-11-21T23:06:40.260Z,34.27
2018-11-21T23:09:20.673Z,33.40
2018-11-21T23:12:01.107Z,33.67
2018-11-21T23:14:41.454Z,33.03
2018-11-21T23:17:21.295Z,32.37
2018-11-21T23:20:02.451Z,34.50
2018-11-21T23:22:43.959Z,30.93
2018-11-21T23:25:24.177Z,35.33
2018-11-21T23:28:04.198Z,35.23
2018-11-21T23:30:44.203Z,33.27
2018-11-21T23:33:23.692Z,36.50
2018-11-21T23:36:04.066Z,35.57
2018-11-21T23:38:31.440Z,36.27
2018-11-21T23:41:18.939Z,32.57
2018-11-21T23:44:05.773Z,33.07
2018-11-21T23:46:45.691Z,35.10
2018-11-21T23:52:11.791Z,34.10
2018-11-21T23:57:38.366Z,33.47
